Nathan Golding — WDD8656 — position and weather

sailwx.info

Track history (hours):
 
Tides and Currents Weather Stations Pressure Air Temp Water Temp Dewpoint Dewpoint Depression Visibility Wind Speed Wind Dir Waves Ship Positions

Nathan Golding

Owner: Golding Barge Line, Inc., VICKSBURG, MS. More information available from US FCC via Universal Licensing System and Coast Guard Vessel Documentation Center.

Last reported at 2018-Jun-22 03:52 UTC. Time now 2018-Jun-22 18:53 UTC.
Position N 29°50' W 091°57'.

Length 23 m; draft 2.4 m.

Type: Towing. MMSI: 367301010.

Date/timePositionNaut miles runAvg speedWind from/ knotsBaromVisibWave heightAir tempDewpointWater temp
2018-Jun-22 03:52N 29°50' W 091°57'2 5.1
2018-Jun-22 03:30N 29°50' W 091°59'3 5.4
2018-Jun-22 03:00N 29°49' W 092°02'2 4.8
2018-Jun-22 02:30N 29°48' W 092°05'2 4.9
2018-Jun-22 02:00N 29°47' W 092°07'2 3.5
2018-Jun-22 01:30N 29°47' W 092°09'2 4.1
2018-Jun-22 01:00N 29°47' W 092°12'1 1.2
2018-Jun-22 00:30N 29°47' W 092°12'1 1.6
2018-Jun-22 00:00N 29°48' W 092°13'0 0.6
2018-Jun-21 23:30N 29°48' W 092°14'0 0.6
2018-Jun-21 23:00N 29°48' W 092°14'0 0.7
2018-Jun-21 22:30N 29°48' W 092°14'1 1.3
2018-Jun-21 22:00N 29°48' W 092°15'1 1.8
2018-Jun-21 21:30N 29°49' W 092°16'0 0.6
2018-Jun-21 21:00N 29°49' W 092°16'0 0.0
2018-Jun-21 20:30N 29°49' W 092°16'0 0.0
2018-Jun-21 20:00N 29°49' W 092°16'1 1.2
2018-Jun-21 19:30N 29°49' W 092°17'2 4.3
2018-Jun-21 19:00N 29°50' W 092°19'2 4.0
2018-Jun-21 18:28N 29°51' W 092°21'2 3.4
2018-Jun-21 17:55N 29°52' W 092°23'2 4.6
2018-Jun-21 17:29N 29°53' W 092°25'34 4.6
2018-Jun-21 09:56N 29°56' W 093°04'2 4.5
2018-Jun-21 09:27N 29°56' W 093°07'2 4.8
2018-Jun-21 09:00N 29°56' W 093°09'2 4.7
2018-Jun-21 08:30N 29°58' W 093°11'2 4.8
2018-Jun-21 08:00N 29°60' W 093°13'2 4.4
2018-Jun-21 07:30N 30°02' W 093°14'2 3.9
2018-Jun-21 07:00N 30°03' W 093°16'2 3.3
2018-Jun-21 06:30N 30°04' W 093°16'1 2.8
2018-Jun-21 06:00N 30°05' W 093°18'1 2.3
2018-Jun-21 05:30N 30°06' W 093°19'0 0.6
2018-Jun-21 05:00N 30°06' W 093°18'0 0.0
2018-Jun-21 04:30N 30°06' W 093°18'0 0.0
2018-Jun-21 04:00N 30°06' W 093°18'0 0.0
2018-Jun-21 03:30N 30°06' W 093°18'0 0.0
2018-Jun-21 02:59N 30°06' W 093°18'0 0.0
2018-Jun-21 02:30N 30°06' W 093°18'0 0.0
2018-Jun-21 01:56N 30°06' W 093°18'0 0.1
2018-Jun-21 01:30N 30°06' W 093°18'0 0.9
2018-Jun-21 01:00N 30°06' W 093°19'0 0.4
2018-Jun-21 00:30N 30°06' W 093°19'0 0.0
2018-Jun-21 00:00N 30°06' W 093°19'0 0.0
2018-Jun-20 23:30N 30°06' W 093°19'0 0.0
2018-Jun-20 23:00N 30°06' W 093°19'0 0.0
2018-Jun-20 22:30N 30°06' W 093°19'0 0.3
2018-Jun-20 22:01N 30°06' W 093°19'0 0.0
2018-Jun-20 21:30N 30°06' W 093°19'0 0.0
2018-Jun-20 21:00N 30°06' W 093°19'0 0.0
2018-Jun-20 20:30N 30°06' W 093°19'0 0.0
2018-Jun-20 20:00N 30°06' W 093°19'0 0.0
2018-Jun-20 19:30N 30°06' W 093°19'0 0.0
2018-Jun-20 19:00N 30°06' W 093°19'0 0.0
2018-Jun-20 18:30N 30°06' W 093°19'0 0.3
2018-Jun-20 18:00N 30°06' W 093°19'0 0.1
2018-Jun-20 17:29N 30°06' W 093°19'0 0.0
2018-Jun-20 17:00N 30°06' W 093°19'0 0.0
2018-Jun-20 16:30N 30°06' W 093°19'0 0.0
2018-Jun-20 16:00N 30°06' W 093°19'0 0.0
2018-Jun-20 15:30N 30°06' W 093°19'0 0.0
2018-Jun-20 15:00N 30°06' W 093°19'0 0.0
2018-Jun-20 14:30N 30°06' W 093°19'0 0.2
2018-Jun-20 14:00N 30°06' W 093°19'1 2.3
2018-Jun-20 13:30N 30°05' W 093°20'2 3.7
2018-Jun-20 13:00N 30°04' W 093°21'2 3.2
2018-Jun-20 12:30N 30°04' W 093°23'3 5.1
2018-Jun-20 12:00N 30°04' W 093°26'3 5.8
2018-Jun-20 11:30N 30°04' W 093°29'3 5.8
2018-Jun-20 11:00N 30°04' W 093°33'3 5.7
2018-Jun-20 10:30N 30°04' W 093°36'3 5.7
2018-Jun-20 10:00N 30°04' W 093°39'3 5.6
2018-Jun-20 09:30N 30°03' W 093°43'3 5.0
2018-Jun-20 09:00N 30°01' W 093°45'3 5.4
2018-Jun-20 08:30N 29°60' W 093°47'3 6.0
2018-Jun-20 08:00N 29°59' W 093°50'3 5.3
2018-Jun-20 07:30N 29°56' W 093°52'3 6.2
2018-Jun-20 07:00N 29°54' W 093°54'3 6.1
2018-Jun-20 06:30N 29°52' W 093°56'3 5.9
2018-Jun-20 06:00N 29°49' W 093°58'1 2.7
2018-Jun-20 05:30N 29°49' W 093°60'2 5.0
2018-Jun-20 05:00N 29°47' W 094°02'2 4.8
2018-Jun-20 04:31N 29°45' W 094°04'2 4.5
2018-Jun-20 04:00N 29°44' W 094°06'2 4.8
2018-Jun-20 03:31N 29°42' W 094°08'2 4.6
2018-Jun-20 03:00N 29°41' W 094°10'2 3.9
2018-Jun-20 02:30N 29°41' W 094°12'1 2.7
2018-Jun-20 02:00N 29°40' W 094°14'2 4.5
2018-Jun-20 01:30N 29°39' W 094°16'2 4.3
2018-Jun-20 01:00N 29°38' W 094°18'2 4.3
2018-Jun-20 00:30N 29°37' W 094°21'2 4.3
2018-Jun-20 00:00N 29°36' W 094°23'2 3.7
2018-Jun-19 23:28N 29°35' W 094°25'1 3.0
2018-Jun-19 23:00N 29°34' W 094°25'3 3.9
2018-Jun-19 22:21N 29°33' W 094°28'18 4.9
2018-Jun-19 18:37N 29°24' W 094°46'1 5.6
2018-Jun-19 18:28N 29°23' W 094°46'3 6.3
2018-Jun-19 17:57N 29°22' W 094°50'3 6.4
2018-Jun-19 17:30N 29°23' W 094°53'1 1.7
2018-Jun-19 17:00N 29°22' W 094°53'0 0.2
2018-Jun-19 16:30N 29°22' W 094°53'0 0.0
2018-Jun-19 16:00N 29°22' W 094°53'0 0.0
2018-Jun-19 15:30N 29°22' W 094°53'0 0.0
2018-Jun-19 15:00N 29°22' W 094°53'0 0.0
2018-Jun-19 14:30N 29°22' W 094°53'0 0.0
2018-Jun-19 13:59N 29°22' W 094°53'0 0.0
2018-Jun-19 13:30N 29°22' W 094°53'0 0.0
2018-Jun-19 13:00N 29°22' W 094°53'0 0.0
2018-Jun-19 12:30N 29°22' W 094°53'0 0.0
2018-Jun-19 12:00N 29°22' W 094°53'0 0.0
2018-Jun-19 11:30N 29°22' W 094°53'0 0.0
2018-Jun-19 11:00N 29°22' W 094°53'0 0.0
2018-Jun-19 10:30N 29°22' W 094°53'0 0.0
2018-Jun-19 10:00N 29°22' W 094°53'0 0.0
2018-Jun-19 09:30N 29°22' W 094°53'0 0.0
2018-Jun-19 09:00N 29°22' W 094°53'0 0.0
2018-Jun-19 08:30N 29°22' W 094°53'0 0.0
2018-Jun-19 08:00N 29°22' W 094°53'0 0.0
2018-Jun-19 07:30N 29°22' W 094°53'0 0.0
2018-Jun-19 07:00N 29°22' W 094°53'0 0.0
2018-Jun-19 06:30N 29°22' W 094°53'0 0.0
2018-Jun-19 06:00N 29°22' W 094°53'0 0.0
2018-Jun-19 05:30N 29°22' W 094°53'0 0.0
2018-Jun-19 05:00N 29°22' W 094°53'0 0.0
2018-Jun-19 04:30N 29°22' W 094°53'0 0.0
2018-Jun-19 04:00N 29°22' W 094°53'0 0.0
2018-Jun-19 03:30N 29°22' W 094°53'0 0.0
2018-Jun-19 03:00N 29°22' W 094°53'0 0.0
2018-Jun-19 02:29N 29°22' W 094°53'0 0.0
2018-Jun-19 02:00N 29°22' W 094°53'0 0.0
2018-Jun-19 01:30N 29°22' W 094°53'0 0.0
2018-Jun-19 01:00N 29°22' W 094°53'0 0.0
2018-Jun-19 00:30N 29°22' W 094°53'0 0.0
2018-Jun-19 00:00N 29°22' W 094°53'0 0.1
2018-Jun-18 23:30N 29°22' W 094°53'0 0.0
2018-Jun-18 23:00N 29°22' W 094°53'0 0.1
2018-Jun-18 22:30N 29°22' W 094°54'0 0.0
2018-Jun-18 21:59N 29°22' W 094°54'0 0.0
2018-Jun-18 21:28N 29°22' W 094°54'0 0.0
2018-Jun-18 20:57N 29°22' W 094°54'0 0.0
2018-Jun-18 20:30N 29°22' W 094°54'0 0.0
2018-Jun-18 20:00N 29°22' W 094°54'0 0.2
2018-Jun-18 19:30N 29°22' W 094°53'0 0.0
2018-Jun-18 19:00N 29°22' W 094°53'0 0.1
2018-Jun-18 18:30N 29°22' W 094°53'0 0.0
2018-Jun-18 18:00N 29°22' W 094°53'0 0.2
2018-Jun-18 17:30N 29°22' W 094°53'0 0.4
2018-Jun-18 17:00N 29°22' W 094°54'0 0.0
2018-Jun-18 14:02N 29°22' W 094°53'0 0.0
2018-Jun-18 13:58N 29°22' W 094°53'0 0.0
2018-Jun-18 13:29N 29°22' W 094°53'0 0.0
2018-Jun-18 13:00N 29°22' W 094°53'0 0.0
2018-Jun-18 10:48N 29°22' W 094°53'0 0.0
2018-Jun-18 04:53N 29°22' W 094°53'0 0.0
2018-Jun-18 04:23N 29°22' W 094°53'0 0.0
2018-Jun-18 03:59N 29°22' W 094°53'0 0.0
2018-Jun-18 03:30N 29°22' W 094°53'0 0.0
2018-Jun-18 03:00N 29°22' W 094°53'0 0.0
2018-Jun-18 02:30N 29°22' W 094°53'0 0.0
2018-Jun-18 02:00N 29°22' W 094°53'0 0.0
2018-Jun-18 01:30N 29°22' W 094°53'0 0.0
2018-Jun-18 01:00N 29°22' W 094°53'0 0.0
2018-Jun-18 00:30N 29°22' W 094°53'0 0.0
2018-Jun-17 23:57N 29°22' W 094°53'0 0.0
2018-Jun-17 23:28N 29°22' W 094°53'0 0.0
2018-Jun-17 22:58N 29°22' W 094°53'0 0.0
2018-Jun-17 22:30N 29°22' W 094°53'0 0.0
2018-Jun-17 21:59N 29°22' W 094°53'0 0.0
2018-Jun-17 21:30N 29°22' W 094°53'0 0.0
2018-Jun-17 21:00N 29°22' W 094°53'0 0.0
2018-Jun-17 19:35N 29°22' W 094°53'0 0.0
2018-Jun-17 19:30N 29°22' W 094°53'0 0.0
2018-Jun-17 18:59N 29°22' W 094°53'0 0.0
2018-Jun-17 18:29N 29°22' W 094°53'0 0.0
2018-Jun-17 18:00N 29°22' W 094°53'0 0.0
2018-Jun-17 17:30N 29°22' W 094°53'0 0.0
2018-Jun-17 17:00N 29°22' W 094°53'0 0.0
2018-Jun-17 16:28N 29°22' W 094°53'0 0.0
2018-Jun-17 16:00N 29°22' W 094°53'0 0.0
2018-Jun-17 15:28N 29°22' W 094°53'0 0.0
2018-Jun-17 15:00N 29°22' W 094°53'  
2018-Jun-14 19:11N 29°24' W 094°45'16 2.6
2018-Jun-14 13:01N 29°32' W 094°29'3 5.4
2018-Jun-14 12:30N 29°34' W 094°26'2 4.5
2018-Jun-14 12:00N 29°36' W 094°25'3 5.3
2018-Jun-14 11:29N 29°36' W 094°22'3 6.2
2018-Jun-14 11:00N 29°38' W 094°19'2 4.5
2018-Jun-14 10:30N 29°39' W 094°16'3 6.6
2018-Jun-14 10:00N 29°40' W 094°13'3 5.5
2018-Jun-14 09:30N 29°41' W 094°10'1 2.4
2018-Jun-14 09:00N 29°42' W 094°09'4 7.1
2018-Jun-14 08:30N 29°44' W 094°06'4 7.2
2018-Jun-14 08:00N 29°46' W 094°02'3 7.0
2018-Jun-14 07:30N 29°49' W 093°60'3 5.7
2018-Jun-14 07:00N 29°51' W 093°57'5 9.3
2018-Jun-14 06:30N 29°54' W 093°54'4 8.1
2018-Jun-14 06:01N 29°58' W 093°51'3 5.6
2018-Jun-14 05:30N 29°59' W 093°48'4 7.3
2018-Jun-14 04:59N 30°01' W 093°45'3 6.4
2018-Jun-14 04:30N 30°03' W 093°42'4 7.0
2018-Jun-14 03:59N 30°04' W 093°38'3 6.6
2018-Jun-14 03:30N 30°04' W 093°34'3 6.3
2018-Jun-14 03:00N 30°04' W 093°31'3 6.2
2018-Jun-14 02:30N 30°04' W 093°27'3 5.4
2018-Jun-14 02:00N 30°04' W 093°24'2 4.5
2018-Jun-14 01:30N 30°04' W 093°21'2 4.7
2018-Jun-14 01:00N 30°05' W 093°20'2 3.4
2018-Jun-14 00:30N 30°05' W 093°18'1 1.9
2018-Jun-14 00:00N 30°05' W 093°17'1 1.2
2018-Jun-13 23:30N 30°04' W 093°16'0 0.8
2018-Jun-13 23:00N 30°04' W 093°16'0 0.8
2018-Jun-13 22:30N 30°04' W 093°16'2 3.0
2018-Jun-13 22:00N 30°02' W 093°15'0 0.3
2018-Jun-13 21:30N 30°02' W 093°15'0 0.0
2018-Jun-13 21:00N 30°02' W 093°15'0 0.0
2018-Jun-13 20:30N 30°02' W 093°15'0 0.0
2018-Jun-13 20:00N 30°02' W 093°15'0 0.0
2018-Jun-13 19:30N 30°02' W 093°15'0 0.0
2018-Jun-13 19:00N 30°02' W 093°15'0 0.0
2018-Jun-13 18:30N 30°02' W 093°15'0 0.0
2018-Jun-13 18:00N 30°02' W 093°15'0 0.0
2018-Jun-13 17:30N 30°02' W 093°15'0 0.0
2018-Jun-13 17:00N 30°02' W 093°15'0 0.0
2018-Jun-13 16:30N 30°02' W 093°15'0 0.0
2018-Jun-13 16:00N 30°02' W 093°15'0 0.0
2018-Jun-13 15:30N 30°02' W 093°15'0 0.0
2018-Jun-13 15:00N 30°02' W 093°15'0 0.0
2018-Jun-13 14:29N 30°02' W 093°15'0 0.0
2018-Jun-13 14:00N 30°02' W 093°15'0 0.0
2018-Jun-13 13:30N 30°02' W 093°15'0 0.0
2018-Jun-13 13:00N 30°02' W 093°15'0 0.0
2018-Jun-13 12:30N 30°02' W 093°15'0 0.0
2018-Jun-13 12:00N 30°02' W 093°15'0 0.0
2018-Jun-13 11:30N 30°02' W 093°15'0 0.0
2018-Jun-13 11:00N 30°02' W 093°15'0 0.0
2018-Jun-13 10:30N 30°02' W 093°15'0 0.0
2018-Jun-13 09:58N 30°02' W 093°15'0 0.0
2018-Jun-13 09:30N 30°02' W 093°15'0 0.0
2018-Jun-13 09:00N 30°02' W 093°15'0 0.0
2018-Jun-13 08:29N 30°02' W 093°15'0 0.0
2018-Jun-13 08:00N 30°02' W 093°15'0 0.0
2018-Jun-13 07:30N 30°02' W 093°15'0 0.0
2018-Jun-13 07:00N 30°02' W 093°15'0 0.4
2018-Jun-13 06:30N 30°02' W 093°15'2 3.8
2018-Jun-13 06:00N 30°00' W 093°14'3 5.5
2018-Jun-13 05:30N 29°58' W 093°12'1 1.9
2018-Jun-13 04:56N 29°57' W 093°11'0 0.0
2018-Jun-13 04:30N 29°57' W 093°11'0 0.0
2018-Jun-13 04:00N 29°57' W 093°11'0 0.0
2018-Jun-13 03:30N 29°57' W 093°11'0 0.0
2018-Jun-13 03:00N 29°57' W 093°11'0 0.0
2018-Jun-13 02:30N 29°57' W 093°11'1 2.6
2018-Jun-13 02:00N 29°56' W 093°10'39 6.3
2018-Jun-12 19:44N 29°53' W 092°25'2 5.9
2018-Jun-12 19:27N 29°53' W 092°23'3 5.7
2018-Jun-12 19:00N 29°51' W 092°21'3 5.6
2018-Jun-12 18:30N 29°50' W 092°18'3 6.3
2018-Jun-12 18:00N 29°48' W 092°15'2 5.0
2018-Jun-12 17:30N 29°47' W 092°12'1 2.2
2018-Jun-12 17:00N 29°47' W 092°11'1 1.4
2018-Jun-12 16:30N 29°46' W 092°10'4 6.8
2018-Jun-12 15:59N 29°48' W 092°07'3 7.0
2018-Jun-12 15:30N 29°49' W 092°03'  
Track history (hours):
 
Tides and Currents Weather Stations Pressure Air Temp Water Temp Dewpoint Dewpoint Depression Visibility Wind Speed Wind Dir Waves Ship Positions

Nathan Golding

Owner: Golding Barge Line, Inc., VICKSBURG, MS. More information available from US FCC via Universal Licensing System and Coast Guard Vessel Documentation Center.

Last reported at 2018-Jun-22 03:52 UTC. Time now 2018-Jun-22 18:53 UTC.
Position N 29°50' W 091°57'.

Length 23 m; draft 2.4 m.

Type: Towing. MMSI: 367301010.

Date/timePositionNaut miles runAvg speedWind from/ knotsBaromVisibWave heightAir tempDewpointWater temp
2018-Jun-22 03:52N 29°50' W 091°57'2 5.1
2018-Jun-22 03:30N 29°50' W 091°59'3 5.4
2018-Jun-22 03:00N 29°49' W 092°02'2 4.8
2018-Jun-22 02:30N 29°48' W 092°05'2 4.9
2018-Jun-22 02:00N 29°47' W 092°07'2 3.5
2018-Jun-22 01:30N 29°47' W 092°09'2 4.1
2018-Jun-22 01:00N 29°47' W 092°12'1 1.2
2018-Jun-22 00:30N 29°47' W 092°12'1 1.6
2018-Jun-22 00:00N 29°48' W 092°13'0 0.6
2018-Jun-21 23:30N 29°48' W 092°14'0 0.6
2018-Jun-21 23:00N 29°48' W 092°14'0 0.7
2018-Jun-21 22:30N 29°48' W 092°14'1 1.3
2018-Jun-21 22:00N 29°48' W 092°15'1 1.8
2018-Jun-21 21:30N 29°49' W 092°16'0 0.6
2018-Jun-21 21:00N 29°49' W 092°16'0 0.0
2018-Jun-21 20:30N 29°49' W 092°16'0 0.0
2018-Jun-21 20:00N 29°49' W 092°16'1 1.2
2018-Jun-21 19:30N 29°49' W 092°17'2 4.3
2018-Jun-21 19:00N 29°50' W 092°19'2 4.0
2018-Jun-21 18:28N 29°51' W 092°21'2 3.4
2018-Jun-21 17:55N 29°52' W 092°23'2 4.6
2018-Jun-21 17:29N 29°53' W 092°25'34 4.6
2018-Jun-21 09:56N 29°56' W 093°04'2 4.5
2018-Jun-21 09:27N 29°56' W 093°07'2 4.8
2018-Jun-21 09:00N 29°56' W 093°09'2 4.7
2018-Jun-21 08:30N 29°58' W 093°11'2 4.8
2018-Jun-21 08:00N 29°60' W 093°13'2 4.4
2018-Jun-21 07:30N 30°02' W 093°14'2 3.9
2018-Jun-21 07:00N 30°03' W 093°16'2 3.3
2018-Jun-21 06:30N 30°04' W 093°16'1 2.8
2018-Jun-21 06:00N 30°05' W 093°18'1 2.3
2018-Jun-21 05:30N 30°06' W 093°19'0 0.6
2018-Jun-21 05:00N 30°06' W 093°18'0 0.0
2018-Jun-21 04:30N 30°06' W 093°18'0 0.0
2018-Jun-21 04:00N 30°06' W 093°18'0 0.0
2018-Jun-21 03:30N 30°06' W 093°18'0 0.0
2018-Jun-21 02:59N 30°06' W 093°18'0 0.0
2018-Jun-21 02:30N 30°06' W 093°18'0 0.0
2018-Jun-21 01:56N 30°06' W 093°18'0 0.1
2018-Jun-21 01:30N 30°06' W 093°18'0 0.9
2018-Jun-21 01:00N 30°06' W 093°19'0 0.4
2018-Jun-21 00:30N 30°06' W 093°19'0 0.0
2018-Jun-21 00:00N 30°06' W 093°19'0 0.0
2018-Jun-20 23:30N 30°06' W 093°19'0 0.0
2018-Jun-20 23:00N 30°06' W 093°19'0 0.0
2018-Jun-20 22:30N 30°06' W 093°19'0 0.3
2018-Jun-20 22:01N 30°06' W 093°19'0 0.0
2018-Jun-20 21:30N 30°06' W 093°19'0 0.0
2018-Jun-20 21:00N 30°06' W 093°19'0 0.0
2018-Jun-20 20:30N 30°06' W 093°19'0 0.0
2018-Jun-20 20:00N 30°06' W 093°19'0 0.0
2018-Jun-20 19:30N 30°06' W 093°19'0 0.0
2018-Jun-20 19:00N 30°06' W 093°19'0 0.0
2018-Jun-20 18:30N 30°06' W 093°19'0 0.3
2018-Jun-20 18:00N 30°06' W 093°19'0 0.1
2018-Jun-20 17:29N 30°06' W 093°19'0 0.0
2018-Jun-20 17:00N 30°06' W 093°19'0 0.0
2018-Jun-20 16:30N 30°06' W 093°19'0 0.0
2018-Jun-20 16:00N 30°06' W 093°19'0 0.0
2018-Jun-20 15:30N 30°06' W 093°19'0 0.0
2018-Jun-20 15:00N 30°06' W 093°19'0 0.0
2018-Jun-20 14:30N 30°06' W 093°19'0 0.2
2018-Jun-20 14:00N 30°06' W 093°19'1 2.3
2018-Jun-20 13:30N 30°05' W 093°20'2 3.7
2018-Jun-20 13:00N 30°04' W 093°21'2 3.2
2018-Jun-20 12:30N 30°04' W 093°23'3 5.1
2018-Jun-20 12:00N 30°04' W 093°26'3 5.8
2018-Jun-20 11:30N 30°04' W 093°29'3 5.8
2018-Jun-20 11:00N 30°04' W 093°33'3 5.7
2018-Jun-20 10:30N 30°04' W 093°36'3 5.7
2018-Jun-20 10:00N 30°04' W 093°39'3 5.6
2018-Jun-20 09:30N 30°03' W 093°43'3 5.0
2018-Jun-20 09:00N 30°01' W 093°45'3 5.4
2018-Jun-20 08:30N 29°60' W 093°47'3 6.0
2018-Jun-20 08:00N 29°59' W 093°50'3 5.3
2018-Jun-20 07:30N 29°56' W 093°52'3 6.2
2018-Jun-20 07:00N 29°54' W 093°54'3 6.1
2018-Jun-20 06:30N 29°52' W 093°56'3 5.9
2018-Jun-20 06:00N 29°49' W 093°58'1 2.7
2018-Jun-20 05:30N 29°49' W 093°60'2 5.0
2018-Jun-20 05:00N 29°47' W 094°02'2 4.8
2018-Jun-20 04:31N 29°45' W 094°04'2 4.5
2018-Jun-20 04:00N 29°44' W 094°06'2 4.8
2018-Jun-20 03:31N 29°42' W 094°08'2 4.6
2018-Jun-20 03:00N 29°41' W 094°10'2 3.9
2018-Jun-20 02:30N 29°41' W 094°12'1 2.7
2018-Jun-20 02:00N 29°40' W 094°14'2 4.5
2018-Jun-20 01:30N 29°39' W 094°16'2 4.3
2018-Jun-20 01:00N 29°38' W 094°18'2 4.3
2018-Jun-20 00:30N 29°37' W 094°21'2 4.3
2018-Jun-20 00:00N 29°36' W 094°23'2 3.7
2018-Jun-19 23:28N 29°35' W 094°25'1 3.0
2018-Jun-19 23:00N 29°34' W 094°25'3 3.9
2018-Jun-19 22:21N 29°33' W 094°28'18 4.9
2018-Jun-19 18:37N 29°24' W 094°46'1 5.6
2018-Jun-19 18:28N 29°23' W 094°46'3 6.3
2018-Jun-19 17:57N 29°22' W 094°50'3 6.4
2018-Jun-19 17:30N 29°23' W 094°53'1 1.7
2018-Jun-19 17:00N 29°22' W 094°53'0 0.2
2018-Jun-19 16:30N 29°22' W 094°53'0 0.0
2018-Jun-19 16:00N 29°22' W 094°53'0 0.0
2018-Jun-19 15:30N 29°22' W 094°53'0 0.0
2018-Jun-19 15:00N 29°22' W 094°53'0 0.0
2018-Jun-19 14:30N 29°22' W 094°53'0 0.0
2018-Jun-19 13:59N 29°22' W 094°53'0 0.0
2018-Jun-19 13:30N 29°22' W 094°53'0 0.0
2018-Jun-19 13:00N 29°22' W 094°53'0 0.0
2018-Jun-19 12:30N 29°22' W 094°53'0 0.0
2018-Jun-19 12:00N 29°22' W 094°53'0 0.0
2018-Jun-19 11:30N 29°22' W 094°53'0 0.0
2018-Jun-19 11:00N 29°22' W 094°53'0 0.0
2018-Jun-19 10:30N 29°22' W 094°53'0 0.0
2018-Jun-19 10:00N 29°22' W 094°53'0 0.0
2018-Jun-19 09:30N 29°22' W 094°53'0 0.0
2018-Jun-19 09:00N 29°22' W 094°53'0 0.0
2018-Jun-19 08:30N 29°22' W 094°53'0 0.0
2018-Jun-19 08:00N 29°22' W 094°53'0 0.0
2018-Jun-19 07:30N 29°22' W 094°53'0 0.0
2018-Jun-19 07:00N 29°22' W 094°53'0 0.0
2018-Jun-19 06:30N 29°22' W 094°53'0 0.0
2018-Jun-19 06:00N 29°22' W 094°53'0 0.0
2018-Jun-19 05:30N 29°22' W 094°53'0 0.0
2018-Jun-19 05:00N 29°22' W 094°53'0 0.0
2018-Jun-19 04:30N 29°22' W 094°53'0 0.0
2018-Jun-19 04:00N 29°22' W 094°53'0 0.0
2018-Jun-19 03:30N 29°22' W 094°53'0 0.0
2018-Jun-19 03:00N 29°22' W 094°53'0 0.0
2018-Jun-19 02:29N 29°22' W 094°53'0 0.0
2018-Jun-19 02:00N 29°22' W 094°53'0 0.0
2018-Jun-19 01:30N 29°22' W 094°53'0 0.0
2018-Jun-19 01:00N 29°22' W 094°53'0 0.0
2018-Jun-19 00:30N 29°22' W 094°53'0 0.0
2018-Jun-19 00:00N 29°22' W 094°53'0 0.1
2018-Jun-18 23:30N 29°22' W 094°53'0 0.0
2018-Jun-18 23:00N 29°22' W 094°53'0 0.1
2018-Jun-18 22:30N 29°22' W 094°54'0 0.0
2018-Jun-18 21:59N 29°22' W 094°54'0 0.0
2018-Jun-18 21:28N 29°22' W 094°54'0 0.0
2018-Jun-18 20:57N 29°22' W 094°54'0 0.0
2018-Jun-18 20:30N 29°22' W 094°54'0 0.0
2018-Jun-18 20:00N 29°22' W 094°54'0 0.2
2018-Jun-18 19:30N 29°22' W 094°53'0 0.0
2018-Jun-18 19:00N 29°22' W 094°53'0 0.1
2018-Jun-18 18:30N 29°22' W 094°53'0 0.0
2018-Jun-18 18:00N 29°22' W 094°53'0 0.2
2018-Jun-18 17:30N 29°22' W 094°53'0 0.4
2018-Jun-18 17:00N 29°22' W 094°54'0 0.0
2018-Jun-18 14:02N 29°22' W 094°53'0 0.0
2018-Jun-18 13:58N 29°22' W 094°53'0 0.0
2018-Jun-18 13:29N 29°22' W 094°53'0 0.0
2018-Jun-18 13:00N 29°22' W 094°53'0 0.0
2018-Jun-18 10:48N 29°22' W 094°53'0 0.0
2018-Jun-18 04:53N 29°22' W 094°53'0 0.0
2018-Jun-18 04:23N 29°22' W 094°53'0 0.0
2018-Jun-18 03:59N 29°22' W 094°53'0 0.0
2018-Jun-18 03:30N 29°22' W 094°53'0 0.0
2018-Jun-18 03:00N 29°22' W 094°53'0 0.0
2018-Jun-18 02:30N 29°22' W 094°53'0 0.0
2018-Jun-18 02:00N 29°22' W 094°53'0 0.0
2018-Jun-18 01:30N 29°22' W 094°53'0 0.0
2018-Jun-18 01:00N 29°22' W 094°53'0 0.0
2018-Jun-18 00:30N 29°22' W 094°53'0 0.0
2018-Jun-17 23:57N 29°22' W 094°53'0 0.0
2018-Jun-17 23:28N 29°22' W 094°53'0 0.0
2018-Jun-17 22:58N 29°22' W 094°53'0 0.0
2018-Jun-17 22:30N 29°22' W 094°53'0 0.0
2018-Jun-17 21:59N 29°22' W 094°53'0 0.0
2018-Jun-17 21:30N 29°22' W 094°53'0 0.0
2018-Jun-17 21:00N 29°22' W 094°53'0 0.0
2018-Jun-17 19:35N 29°22' W 094°53'0 0.0
2018-Jun-17 19:30N 29°22' W 094°53'0 0.0
2018-Jun-17 18:59N 29°22' W 094°53'0 0.0
2018-Jun-17 18:29N 29°22' W 094°53'0 0.0
2018-Jun-17 18:00N 29°22' W 094°53'0 0.0
2018-Jun-17 17:30N 29°22' W 094°53'0 0.0
2018-Jun-17 17:00N 29°22' W 094°53'0 0.0
2018-Jun-17 16:28N 29°22' W 094°53'0 0.0
2018-Jun-17 16:00N 29°22' W 094°53'0 0.0
2018-Jun-17 15:28N 29°22' W 094°53'0 0.0
2018-Jun-17 15:00N 29°22' W 094°53'  
2018-Jun-14 19:11N 29°24' W 094°45'16 2.6
2018-Jun-14 13:01N 29°32' W 094°29'3 5.4
2018-Jun-14 12:30N 29°34' W 094°26'2 4.5
2018-Jun-14 12:00N 29°36' W 094°25'3 5.3
2018-Jun-14 11:29N 29°36' W 094°22'3 6.2
2018-Jun-14 11:00N 29°38' W 094°19'2 4.5
2018-Jun-14 10:30N 29°39' W 094°16'3 6.6
2018-Jun-14 10:00N 29°40' W 094°13'3 5.5
2018-Jun-14 09:30N 29°41' W 094°10'1 2.4
2018-Jun-14 09:00N 29°42' W 094°09'4 7.1
2018-Jun-14 08:30N 29°44' W 094°06'4 7.2
2018-Jun-14 08:00N 29°46' W 094°02'3 7.0
2018-Jun-14 07:30N 29°49' W 093°60'3 5.7
2018-Jun-14 07:00N 29°51' W 093°57'5 9.3
2018-Jun-14 06:30N 29°54' W 093°54'4 8.1
2018-Jun-14 06:01N 29°58' W 093°51'3 5.6
2018-Jun-14 05:30N 29°59' W 093°48'4 7.3
2018-Jun-14 04:59N 30°01' W 093°45'3 6.4
2018-Jun-14 04:30N 30°03' W 093°42'4 7.0
2018-Jun-14 03:59N 30°04' W 093°38'3 6.6
2018-Jun-14 03:30N 30°04' W 093°34'3 6.3
2018-Jun-14 03:00N 30°04' W 093°31'3 6.2
2018-Jun-14 02:30N 30°04' W 093°27'3 5.4
2018-Jun-14 02:00N 30°04' W 093°24'2 4.5
2018-Jun-14 01:30N 30°04' W 093°21'2 4.7
2018-Jun-14 01:00N 30°05' W 093°20'2 3.4
2018-Jun-14 00:30N 30°05' W 093°18'1 1.9
2018-Jun-14 00:00N 30°05' W 093°17'1 1.2
2018-Jun-13 23:30N 30°04' W 093°16'0 0.8
2018-Jun-13 23:00N 30°04' W 093°16'0 0.8
2018-Jun-13 22:30N 30°04' W 093°16'2 3.0
2018-Jun-13 22:00N 30°02' W 093°15'0 0.3
2018-Jun-13 21:30N 30°02' W 093°15'0 0.0
2018-Jun-13 21:00N 30°02' W 093°15'0 0.0
2018-Jun-13 20:30N 30°02' W 093°15'0 0.0
2018-Jun-13 20:00N 30°02' W 093°15'0 0.0
2018-Jun-13 19:30N 30°02' W 093°15'0 0.0
2018-Jun-13 19:00N 30°02' W 093°15'0 0.0
2018-Jun-13 18:30N 30°02' W 093°15'0 0.0
2018-Jun-13 18:00N 30°02' W 093°15'0 0.0
2018-Jun-13 17:30N 30°02' W 093°15'0 0.0
2018-Jun-13 17:00N 30°02' W 093°15'0 0.0
2018-Jun-13 16:30N 30°02' W 093°15'0 0.0
2018-Jun-13 16:00N 30°02' W 093°15'0 0.0
2018-Jun-13 15:30N 30°02' W 093°15'0 0.0
2018-Jun-13 15:00N 30°02' W 093°15'0 0.0
2018-Jun-13 14:29N 30°02' W 093°15'0 0.0
2018-Jun-13 14:00N 30°02' W 093°15'0 0.0
2018-Jun-13 13:30N 30°02' W 093°15'0 0.0
2018-Jun-13 13:00N 30°02' W 093°15'0 0.0
2018-Jun-13 12:30N 30°02' W 093°15'0 0.0
2018-Jun-13 12:00N 30°02' W 093°15'0 0.0
2018-Jun-13 11:30N 30°02' W 093°15'0 0.0
2018-Jun-13 11:00N 30°02' W 093°15'0 0.0
2018-Jun-13 10:30N 30°02' W 093°15'0 0.0
2018-Jun-13 09:58N 30°02' W 093°15'0 0.0
2018-Jun-13 09:30N 30°02' W 093°15'0 0.0
2018-Jun-13 09:00N 30°02' W 093°15'0 0.0
2018-Jun-13 08:29N 30°02' W 093°15'0 0.0
2018-Jun-13 08:00N 30°02' W 093°15'0 0.0
2018-Jun-13 07:30N 30°02' W 093°15'0 0.0
2018-Jun-13 07:00N 30°02' W 093°15'0 0.4
2018-Jun-13 06:30N 30°02' W 093°15'2 3.8
2018-Jun-13 06:00N 30°00' W 093°14'3 5.5
2018-Jun-13 05:30N 29°58' W 093°12'1 1.9
2018-Jun-13 04:56N 29°57' W 093°11'0 0.0
2018-Jun-13 04:30N 29°57' W 093°11'0 0.0
2018-Jun-13 04:00N 29°57' W 093°11'0 0.0
2018-Jun-13 03:30N 29°57' W 093°11'0 0.0
2018-Jun-13 03:00N 29°57' W 093°11'0 0.0
2018-Jun-13 02:30N 29°57' W 093°11'1 2.6
2018-Jun-13 02:00N 29°56' W 093°10'39 6.3
2018-Jun-12 19:44N 29°53' W 092°25'2 5.9
2018-Jun-12 19:27N 29°53' W 092°23'3 5.7
2018-Jun-12 19:00N 29°51' W 092°21'3 5.6
2018-Jun-12 18:30N 29°50' W 092°18'3 6.3
2018-Jun-12 18:00N 29°48' W 092°15'2 5.0
2018-Jun-12 17:30N 29°47' W 092°12'1 2.2
2018-Jun-12 17:00N 29°47' W 092°11'1 1.4
2018-Jun-12 16:30N 29°46' W 092°10'4 6.8
2018-Jun-12 15:59N 29°48' W 092°07'3 7.0
2018-Jun-12 15:30N 29°49' W 092°03'  

Dump ship's entire track history